<?xml version="1.0" encoding="UTF-8" standalone="no" ?>
<gpx xmlns="http://www.topografix.com/GPX/1/1" xmlns:xsi="http://www.w3.org/2001/XMLSchema-instance" xsi:schemaLocation="http://www.topografix.com/GPX/1/1 http://www.topografix.com/GPX/1/1/gpx.xsd" version="1.1" creator="VisuGPX - https://www.visugpx.com">
  <metadata>
    <name>de Charôst à Neuvy-Pailloux</name>
    <desc><![CDATA[LE CHEMIN VERS COMPOSTELLE, LA VOIE DE VEZELAY PAR BOURGES]]></desc>
  </metadata>
  <trk>
    <name><![CDATA[9541320-Charost - Neuvy option sud]]></name>
    <trkseg>
      <trkpt lat="46.99434" lon="2.11756">
        <ele>126</ele>
        <time>2019-02-05T09:45:25Z</time>
      </trkpt>
      <trkpt lat="46.99432" lon="2.11733">
        <ele>126</ele>
        <time>2019-02-05T09:46:25Z</time>
      </trkpt>
      <trkpt lat="46.99366" lon="2.11661">
        <ele>127</ele>
        <time>2019-02-05T09:47:25Z</time>
      </trkpt>
      <trkpt lat="46.99362" lon="2.11633">
        <ele>127</ele>
        <time>2019-02-05T09:48:25Z</time>
      </trkpt>
      <trkpt lat="46.99272" lon="2.11635">
        <ele>130</ele>
        <time>2019-02-05T09:49:25Z</time>
      </trkpt>
      <trkpt lat="46.9927" lon="2.1159">
        <ele>129</ele>
        <time>2019-02-05T09:50:25Z</time>
      </trkpt>
      <trkpt lat="46.9918" lon="2.11558">
        <ele>137</ele>
        <time>2019-02-05T09:51:25Z</time>
      </trkpt>
      <trkpt lat="46.99063" lon="2.11479">
        <ele>139</ele>
        <time>2019-02-05T09:52:25Z</time>
      </trkpt>
      <trkpt lat="46.9897" lon="2.11393">
        <ele>140</ele>
        <time>2019-02-05T09:53:25Z</time>
      </trkpt>
      <trkpt lat="46.98931" lon="2.11433">
        <ele>141</ele>
        <time>2019-02-05T09:54:25Z</time>
      </trkpt>
      <trkpt lat="46.98903" lon="2.11484">
        <ele>140</ele>
        <time>2019-02-05T09:55:25Z</time>
      </trkpt>
      <trkpt lat="46.98884" lon="2.11532">
        <ele>136</ele>
        <time>2019-02-05T09:56:25Z</time>
      </trkpt>
      <trkpt lat="46.98854" lon="2.11545">
        <ele>134</ele>
        <time>2019-02-05T09:57:25Z</time>
      </trkpt>
      <trkpt lat="46.98814" lon="2.11515">
        <ele>133</ele>
        <time>2019-02-05T09:58:25Z</time>
      </trkpt>
      <trkpt lat="46.98738" lon="2.11428">
        <ele>132</ele>
        <time>2019-02-05T09:59:25Z</time>
      </trkpt>
      <trkpt lat="46.98687" lon="2.1141">
        <ele>130</ele>
        <time>2019-02-05T10:00:25Z</time>
      </trkpt>
      <trkpt lat="46.9864" lon="2.11402">
        <ele>130</ele>
        <time>2019-02-05T10:01:25Z</time>
      </trkpt>
      <trkpt lat="46.98534" lon="2.11359">
        <ele>133</ele>
        <time>2019-02-05T10:02:25Z</time>
      </trkpt>
      <trkpt lat="46.98426" lon="2.11338">
        <ele>128</ele>
        <time>2019-02-05T10:03:25Z</time>
      </trkpt>
      <trkpt lat="46.98327" lon="2.11336">
        <ele>125</ele>
        <time>2019-02-05T10:04:25Z</time>
      </trkpt>
      <trkpt lat="46.98189" lon="2.11356">
        <ele>124</ele>
        <time>2019-02-05T10:05:25Z</time>
      </trkpt>
      <trkpt lat="46.98029" lon="2.11384">
        <ele>124</ele>
        <time>2019-02-05T10:06:25Z</time>
      </trkpt>
      <trkpt lat="46.97928" lon="2.11397">
        <ele>125</ele>
        <time>2019-02-05T10:07:25Z</time>
      </trkpt>
      <trkpt lat="46.97665" lon="2.11486">
        <ele>123</ele>
        <time>2019-02-05T10:08:25Z</time>
      </trkpt>
      <trkpt lat="46.97601" lon="2.11553">
        <ele>124</ele>
        <time>2019-02-05T10:09:25Z</time>
      </trkpt>
      <trkpt lat="46.97533" lon="2.11601">
        <ele>124</ele>
        <time>2019-02-05T10:10:25Z</time>
      </trkpt>
      <trkpt lat="46.97449" lon="2.11629">
        <ele>124</ele>
        <time>2019-02-05T10:11:25Z</time>
      </trkpt>
      <trkpt lat="46.97357" lon="2.11647">
        <ele>126</ele>
        <time>2019-02-05T10:12:25Z</time>
      </trkpt>
      <trkpt lat="46.9727" lon="2.11663">
        <ele>127</ele>
        <time>2019-02-05T10:13:25Z</time>
      </trkpt>
      <trkpt lat="46.97171" lon="2.11691">
        <ele>128</ele>
        <time>2019-02-05T10:14:25Z</time>
      </trkpt>
      <trkpt lat="46.97108" lon="2.11708">
        <ele>129</ele>
        <time>2019-02-05T10:15:25Z</time>
      </trkpt>
      <trkpt lat="46.97052" lon="2.11716">
        <ele>129</ele>
        <time>2019-02-05T10:16:25Z</time>
      </trkpt>
      <trkpt lat="46.97037" lon="2.11624">
        <ele>133</ele>
        <time>2019-02-05T10:17:25Z</time>
      </trkpt>
      <trkpt lat="46.96906" lon="2.11698">
        <ele>132</ele>
        <time>2019-02-05T10:18:25Z</time>
      </trkpt>
      <trkpt lat="46.96861" lon="2.11737">
        <ele>131</ele>
        <time>2019-02-05T10:19:25Z</time>
      </trkpt>
      <trkpt lat="46.96812" lon="2.11586">
        <ele>139</ele>
        <time>2019-02-05T10:20:25Z</time>
      </trkpt>
      <trkpt lat="46.96312" lon="2.1082">
        <ele>152</ele>
        <time>2019-02-05T10:21:25Z</time>
      </trkpt>
      <trkpt lat="46.9625" lon="2.10581">
        <ele>153</ele>
        <time>2019-02-05T10:22:25Z</time>
      </trkpt>
      <trkpt lat="46.96068" lon="2.10047">
        <ele>156</ele>
        <time>2019-02-05T10:23:25Z</time>
      </trkpt>
      <trkpt lat="46.96009" lon="2.09856">
        <ele>157</ele>
        <time>2019-02-05T10:24:25Z</time>
      </trkpt>
      <trkpt lat="46.95927" lon="2.09662">
        <ele>159</ele>
        <time>2019-02-05T10:25:25Z</time>
      </trkpt>
      <trkpt lat="46.95769" lon="2.09552">
        <ele>158</ele>
        <time>2019-02-05T10:26:25Z</time>
      </trkpt>
      <trkpt lat="46.95718" lon="2.08884">
        <ele>158</ele>
        <time>2019-02-05T10:27:25Z</time>
      </trkpt>
      <trkpt lat="46.95645" lon="2.08087">
        <ele>150</ele>
        <time>2019-02-05T10:28:25Z</time>
      </trkpt>
      <trkpt lat="46.95598" lon="2.0796">
        <ele>151</ele>
        <time>2019-02-05T10:29:25Z</time>
      </trkpt>
      <trkpt lat="46.95551" lon="2.07707">
        <ele>153</ele>
        <time>2019-02-05T10:30:25Z</time>
      </trkpt>
      <trkpt lat="46.95481" lon="2.07319">
        <ele>154</ele>
        <time>2019-02-05T10:31:25Z</time>
      </trkpt>
      <trkpt lat="46.95436" lon="2.07026">
        <ele>155</ele>
        <time>2019-02-05T10:32:25Z</time>
      </trkpt>
      <trkpt lat="46.9542" lon="2.06365">
        <ele>157</ele>
        <time>2019-02-05T10:33:25Z</time>
      </trkpt>
      <trkpt lat="46.95405" lon="2.06141">
        <ele>158</ele>
        <time>2019-02-05T10:34:25Z</time>
      </trkpt>
      <trkpt lat="46.95405" lon="2.05839">
        <ele>157</ele>
        <time>2019-02-05T10:35:25Z</time>
      </trkpt>
      <trkpt lat="46.9541" lon="2.05622">
        <ele>158</ele>
        <time>2019-02-05T10:36:25Z</time>
      </trkpt>
      <trkpt lat="46.9544" lon="2.05332">
        <ele>158</ele>
        <time>2019-02-05T10:37:25Z</time>
      </trkpt>
      <trkpt lat="46.95488" lon="2.05089">
        <ele>157</ele>
        <time>2019-02-05T10:38:25Z</time>
      </trkpt>
      <trkpt lat="46.9553" lon="2.04763">
        <ele>156</ele>
        <time>2019-02-05T10:39:25Z</time>
      </trkpt>
      <trkpt lat="46.95509" lon="2.04558">
        <ele>155</ele>
        <time>2019-02-05T10:40:25Z</time>
      </trkpt>
      <trkpt lat="46.9549" lon="2.04308">
        <ele>154</ele>
        <time>2019-02-05T10:41:25Z</time>
      </trkpt>
      <trkpt lat="46.95451" lon="2.04119">
        <ele>153</ele>
        <time>2019-02-05T10:42:25Z</time>
      </trkpt>
      <trkpt lat="46.9542" lon="2.03944">
        <ele>151</ele>
        <time>2019-02-05T10:43:25Z</time>
      </trkpt>
      <trkpt lat="46.9542" lon="2.03872">
        <ele>152</ele>
        <time>2019-02-05T10:44:25Z</time>
      </trkpt>
      <trkpt lat="46.95408" lon="2.03721">
        <ele>151</ele>
        <time>2019-02-05T10:45:25Z</time>
      </trkpt>
      <trkpt lat="46.95356" lon="2.03492">
        <ele>150</ele>
        <time>2019-02-05T10:46:25Z</time>
      </trkpt>
      <trkpt lat="46.95228" lon="2.0315">
        <ele>150</ele>
        <time>2019-02-05T10:47:25Z</time>
      </trkpt>
      <trkpt lat="46.95134" lon="2.02688">
        <ele>144</ele>
        <time>2019-02-05T10:48:25Z</time>
      </trkpt>
      <trkpt lat="46.95091" lon="2.0223">
        <ele>141</ele>
        <time>2019-02-05T10:49:25Z</time>
      </trkpt>
      <trkpt lat="46.95064" lon="2.02024">
        <ele>140</ele>
        <time>2019-02-05T10:50:25Z</time>
      </trkpt>
      <trkpt lat="46.9505" lon="2.01835">
        <ele>140</ele>
        <time>2019-02-05T10:51:25Z</time>
      </trkpt>
      <trkpt lat="46.95038" lon="2.01582">
        <ele>138</ele>
        <time>2019-02-05T10:52:25Z</time>
      </trkpt>
      <trkpt lat="46.94994" lon="2.01372">
        <ele>138</ele>
        <time>2019-02-05T10:53:25Z</time>
      </trkpt>
      <trkpt lat="46.94997" lon="2.01144">
        <ele>141</ele>
        <time>2019-02-05T10:54:25Z</time>
      </trkpt>
      <trkpt lat="46.94994" lon="2.01037">
        <ele>143</ele>
        <time>2019-02-05T10:55:25Z</time>
      </trkpt>
      <trkpt lat="46.94979" lon="2.00934">
        <ele>145</ele>
        <time>2019-02-05T10:56:25Z</time>
      </trkpt>
      <trkpt lat="46.94965" lon="2.00762">
        <ele>145</ele>
        <time>2019-02-05T10:57:25Z</time>
      </trkpt>
      <trkpt lat="46.94961" lon="2.00665">
        <ele>144</ele>
        <time>2019-02-05T10:58:25Z</time>
      </trkpt>
      <trkpt lat="46.94933" lon="2.00559">
        <ele>146</ele>
        <time>2019-02-05T10:59:25Z</time>
      </trkpt>
      <trkpt lat="46.94919" lon="2.00265">
        <ele>147</ele>
        <time>2019-02-05T11:00:25Z</time>
      </trkpt>
      <trkpt lat="46.94906" lon="2.00238">
        <ele>147</ele>
        <time>2019-02-05T11:01:25Z</time>
      </trkpt>
      <trkpt lat="46.94909" lon="2.00219">
        <ele>147</ele>
        <time>2019-02-05T11:02:25Z</time>
      </trkpt>
      <trkpt lat="46.949" lon="2.00206">
        <ele>147</ele>
        <time>2019-02-05T11:03:25Z</time>
      </trkpt>
      <trkpt lat="46.94886" lon="1.99928">
        <ele>141</ele>
        <time>2019-02-05T11:04:25Z</time>
      </trkpt>
      <trkpt lat="46.94908" lon="1.99878">
        <ele>141</ele>
        <time>2019-02-05T11:05:25Z</time>
      </trkpt>
      <trkpt lat="46.94896" lon="1.9979">
        <ele>141</ele>
        <time>2019-02-05T11:06:25Z</time>
      </trkpt>
      <trkpt lat="46.94895" lon="1.99702">
        <ele>142</ele>
        <time>2019-02-05T11:07:25Z</time>
      </trkpt>
      <trkpt lat="46.94864" lon="1.99711">
        <ele>142</ele>
        <time>2019-02-05T11:08:25Z</time>
      </trkpt>
      <trkpt lat="46.94839" lon="1.99713">
        <ele>142</ele>
        <time>2019-02-05T11:09:25Z</time>
      </trkpt>
      <trkpt lat="46.94832" lon="1.99687">
        <ele>143</ele>
        <time>2019-02-05T11:10:25Z</time>
      </trkpt>
      <trkpt lat="46.94817" lon="1.99674">
        <ele>143</ele>
        <time>2019-02-05T11:11:25Z</time>
      </trkpt>
      <trkpt lat="46.94788" lon="1.99663">
        <ele>143</ele>
        <time>2019-02-05T11:12:25Z</time>
      </trkpt>
      <trkpt lat="46.94781" lon="1.99647">
        <ele>144</ele>
        <time>2019-02-05T11:13:25Z</time>
      </trkpt>
      <trkpt lat="46.94802" lon="1.99505">
        <ele>145</ele>
        <time>2019-02-05T11:14:25Z</time>
      </trkpt>
      <trkpt lat="46.94825" lon="1.99375">
        <ele>145</ele>
        <time>2019-02-05T11:15:25Z</time>
      </trkpt>
      <trkpt lat="46.94833" lon="1.99294">
        <ele>145</ele>
        <time>2019-02-05T11:16:25Z</time>
      </trkpt>
      <trkpt lat="46.94836" lon="1.99225">
        <ele>142</ele>
        <time>2019-02-05T11:17:25Z</time>
      </trkpt>
      <trkpt lat="46.9484" lon="1.99185">
        <ele>142</ele>
        <time>2019-02-05T11:18:25Z</time>
      </trkpt>
      <trkpt lat="46.94846" lon="1.99125">
        <ele>141</ele>
        <time>2019-02-05T11:19:25Z</time>
      </trkpt>
      <trkpt lat="46.94854" lon="1.99101">
        <ele>141</ele>
        <time>2019-02-05T11:20:25Z</time>
      </trkpt>
      <trkpt lat="46.94858" lon="1.99067">
        <ele>141</ele>
        <time>2019-02-05T11:21:25Z</time>
      </trkpt>
      <trkpt lat="46.94871" lon="1.99045">
        <ele>141</ele>
        <time>2019-02-05T11:22:25Z</time>
      </trkpt>
      <trkpt lat="46.94873" lon="1.99021">
        <ele>141</ele>
        <time>2019-02-05T11:23:25Z</time>
      </trkpt>
      <trkpt lat="46.94859" lon="1.99001">
        <ele>141</ele>
        <time>2019-02-05T11:24:25Z</time>
      </trkpt>
      <trkpt lat="46.94848" lon="1.98972">
        <ele>141</ele>
        <time>2019-02-05T11:25:25Z</time>
      </trkpt>
      <trkpt lat="46.9484" lon="1.98944">
        <ele>141</ele>
        <time>2019-02-05T11:26:25Z</time>
      </trkpt>
      <trkpt lat="46.94824" lon="1.98917">
        <ele>140</ele>
        <time>2019-02-05T11:27:25Z</time>
      </trkpt>
      <trkpt lat="46.94809" lon="1.98853">
        <ele>138</ele>
        <time>2019-02-05T11:28:25Z</time>
      </trkpt>
      <trkpt lat="46.94801" lon="1.98791">
        <ele>136</ele>
        <time>2019-02-05T11:29:25Z</time>
      </trkpt>
      <trkpt lat="46.94798" lon="1.98723">
        <ele>134</ele>
        <time>2019-02-05T11:30:25Z</time>
      </trkpt>
      <trkpt lat="46.94798" lon="1.98706">
        <ele>133</ele>
        <time>2019-02-05T11:31:25Z</time>
      </trkpt>
      <trkpt lat="46.94777" lon="1.98686">
        <ele>132</ele>
        <time>2019-02-05T11:32:25Z</time>
      </trkpt>
      <trkpt lat="46.94753" lon="1.98668">
        <ele>131</ele>
        <time>2019-02-05T11:33:25Z</time>
      </trkpt>
      <trkpt lat="46.94743" lon="1.9866">
        <ele>130</ele>
        <time>2019-02-05T11:34:25Z</time>
      </trkpt>
      <trkpt lat="46.94734" lon="1.98638">
        <ele>129</ele>
        <time>2019-02-05T11:35:25Z</time>
      </trkpt>
      <trkpt lat="46.94728" lon="1.98617">
        <ele>129</ele>
        <time>2019-02-05T11:36:25Z</time>
      </trkpt>
      <trkpt lat="46.94718" lon="1.98615">
        <ele>128</ele>
        <time>2019-02-05T11:37:25Z</time>
      </trkpt>
      <trkpt lat="46.94713" lon="1.98603">
        <ele>128</ele>
        <time>2019-02-05T11:38:25Z</time>
      </trkpt>
      <trkpt lat="46.94701" lon="1.986">
        <ele>128</ele>
        <time>2019-02-05T11:39:25Z</time>
      </trkpt>
      <trkpt lat="46.94684" lon="1.98584">
        <ele>127</ele>
        <time>2019-02-05T11:40:25Z</time>
      </trkpt>
      <trkpt lat="46.94649" lon="1.98552">
        <ele>126</ele>
        <time>2019-02-05T11:41:25Z</time>
      </trkpt>
      <trkpt lat="46.94625" lon="1.98526">
        <ele>126</ele>
        <time>2019-02-05T11:42:25Z</time>
      </trkpt>
      <trkpt lat="46.94604" lon="1.98507">
        <ele>126</ele>
        <time>2019-02-05T11:43:25Z</time>
      </trkpt>
      <trkpt lat="46.94568" lon="1.98475">
        <ele>127</ele>
        <time>2019-02-05T11:44:25Z</time>
      </trkpt>
      <trkpt lat="46.94535" lon="1.98445">
        <ele>128</ele>
        <time>2019-02-05T11:45:25Z</time>
      </trkpt>
      <trkpt lat="46.94511" lon="1.98428">
        <ele>129</ele>
        <time>2019-02-05T11:46:25Z</time>
      </trkpt>
      <trkpt lat="46.94455" lon="1.98417">
        <ele>131</ele>
        <time>2019-02-05T11:47:25Z</time>
      </trkpt>
      <trkpt lat="46.94412" lon="1.98408">
        <ele>132</ele>
        <time>2019-02-05T11:48:25Z</time>
      </trkpt>
      <trkpt lat="46.94378" lon="1.98396">
        <ele>133</ele>
        <time>2019-02-05T11:49:25Z</time>
      </trkpt>
      <trkpt lat="46.9436" lon="1.98384">
        <ele>134</ele>
        <time>2019-02-05T11:50:25Z</time>
      </trkpt>
      <trkpt lat="46.94342" lon="1.98362">
        <ele>134</ele>
        <time>2019-02-05T11:51:25Z</time>
      </trkpt>
      <trkpt lat="46.94336" lon="1.98346">
        <ele>135</ele>
        <time>2019-02-05T11:52:25Z</time>
      </trkpt>
      <trkpt lat="46.9433" lon="1.98324">
        <ele>135</ele>
        <time>2019-02-05T11:53:25Z</time>
      </trkpt>
      <trkpt lat="46.94325" lon="1.98311">
        <ele>136</ele>
        <time>2019-02-05T11:54:25Z</time>
      </trkpt>
      <trkpt lat="46.94309" lon="1.98311">
        <ele>136</ele>
        <time>2019-02-05T11:55:25Z</time>
      </trkpt>
      <trkpt lat="46.94257" lon="1.98263">
        <ele>137</ele>
        <time>2019-02-05T11:56:25Z</time>
      </trkpt>
      <trkpt lat="46.94216" lon="1.98233">
        <ele>137</ele>
        <time>2019-02-05T11:57:25Z</time>
      </trkpt>
      <trkpt lat="46.94187" lon="1.9819">
        <ele>137</ele>
        <time>2019-02-05T11:58:25Z</time>
      </trkpt>
      <trkpt lat="46.9416" lon="1.98154">
        <ele>137</ele>
        <time>2019-02-05T11:59:25Z</time>
      </trkpt>
      <trkpt lat="46.94141" lon="1.98143">
        <ele>137</ele>
        <time>2019-02-05T12:00:25Z</time>
      </trkpt>
      <trkpt lat="46.94126" lon="1.98141">
        <ele>137</ele>
        <time>2019-02-05T12:01:25Z</time>
      </trkpt>
      <trkpt lat="46.94107" lon="1.98129">
        <ele>137</ele>
        <time>2019-02-05T12:02:25Z</time>
      </trkpt>
      <trkpt lat="46.94086" lon="1.98104">
        <ele>137</ele>
        <time>2019-02-05T12:03:25Z</time>
      </trkpt>
      <trkpt lat="46.94023" lon="1.98036">
        <ele>137</ele>
        <time>2019-02-05T12:04:25Z</time>
      </trkpt>
      <trkpt lat="46.93906" lon="1.97872">
        <ele>138</ele>
        <time>2019-02-05T12:05:25Z</time>
      </trkpt>
      <trkpt lat="46.93863" lon="1.97784">
        <ele>137</ele>
        <time>2019-02-05T12:06:25Z</time>
      </trkpt>
      <trkpt lat="46.9384" lon="1.97729">
        <ele>136</ele>
        <time>2019-02-05T12:07:25Z</time>
      </trkpt>
      <trkpt lat="46.93834" lon="1.97698">
        <ele>135</ele>
        <time>2019-02-05T12:08:25Z</time>
      </trkpt>
      <trkpt lat="46.93837" lon="1.97663">
        <ele>134</ele>
        <time>2019-02-05T12:09:25Z</time>
      </trkpt>
      <trkpt lat="46.93838" lon="1.9763">
        <ele>133</ele>
        <time>2019-02-05T12:10:25Z</time>
      </trkpt>
      <trkpt lat="46.93802" lon="1.97541">
        <ele>131</ele>
        <time>2019-02-05T12:11:25Z</time>
      </trkpt>
      <trkpt lat="46.93784" lon="1.97527">
        <ele>130</ele>
        <time>2019-02-05T12:12:25Z</time>
      </trkpt>
      <trkpt lat="46.93754" lon="1.97522">
        <ele>130</ele>
        <time>2019-02-05T12:13:25Z</time>
      </trkpt>
      <trkpt lat="46.93723" lon="1.97516">
        <ele>130</ele>
        <time>2019-02-05T12:14:25Z</time>
      </trkpt>
      <trkpt lat="46.93699" lon="1.97503">
        <ele>129</ele>
        <time>2019-02-05T12:15:25Z</time>
      </trkpt>
      <trkpt lat="46.93667" lon="1.97462">
        <ele>129</ele>
        <time>2019-02-05T12:16:25Z</time>
      </trkpt>
      <trkpt lat="46.93637" lon="1.97404">
        <ele>131</ele>
        <time>2019-02-05T12:17:25Z</time>
      </trkpt>
      <trkpt lat="46.93611" lon="1.97317">
        <ele>132</ele>
        <time>2019-02-05T12:18:25Z</time>
      </trkpt>
      <trkpt lat="46.9359" lon="1.97259">
        <ele>132</ele>
        <time>2019-02-05T12:19:25Z</time>
      </trkpt>
      <trkpt lat="46.93506" lon="1.97137">
        <ele>132</ele>
        <time>2019-02-05T12:20:25Z</time>
      </trkpt>
      <trkpt lat="46.93479" lon="1.97102">
        <ele>133</ele>
        <time>2019-02-05T12:21:25Z</time>
      </trkpt>
      <trkpt lat="46.93439" lon="1.97094">
        <ele>135</ele>
        <time>2019-02-05T12:22:25Z</time>
      </trkpt>
      <trkpt lat="46.9334" lon="1.97174">
        <ele>140</ele>
        <time>2019-02-05T12:23:25Z</time>
      </trkpt>
      <trkpt lat="46.93266" lon="1.97217">
        <ele>141</ele>
        <time>2019-02-05T12:24:25Z</time>
      </trkpt>
      <trkpt lat="46.93168" lon="1.97224">
        <ele>144</ele>
        <time>2019-02-05T12:25:25Z</time>
      </trkpt>
      <trkpt lat="46.93079" lon="1.97303">
        <ele>145</ele>
        <time>2019-02-05T12:26:25Z</time>
      </trkpt>
      <trkpt lat="46.92862" lon="1.96957">
        <ele>150</ele>
        <time>2019-02-05T12:27:25Z</time>
      </trkpt>
      <trkpt lat="46.92709" lon="1.9674">
        <ele>149</ele>
        <time>2019-02-05T12:28:25Z</time>
      </trkpt>
      <trkpt lat="46.92458" lon="1.96372">
        <ele>146</ele>
        <time>2019-02-05T12:29:25Z</time>
      </trkpt>
      <trkpt lat="46.92182" lon="1.96091">
        <ele>144</ele>
        <time>2019-02-05T12:30:25Z</time>
      </trkpt>
      <trkpt lat="46.92145" lon="1.96002">
        <ele>144</ele>
        <time>2019-02-05T12:31:25Z</time>
      </trkpt>
      <trkpt lat="46.92005" lon="1.95793">
        <ele>147</ele>
        <time>2019-02-05T12:32:25Z</time>
      </trkpt>
      <trkpt lat="46.91885" lon="1.95625">
        <ele>146</ele>
        <time>2019-02-05T12:33:25Z</time>
      </trkpt>
      <trkpt lat="46.91838" lon="1.95574">
        <ele>147</ele>
        <time>2019-02-05T12:34:25Z</time>
      </trkpt>
      <trkpt lat="46.91679" lon="1.95316">
        <ele>150</ele>
        <time>2019-02-05T12:35:25Z</time>
      </trkpt>
      <trkpt lat="46.91594" lon="1.95222">
        <ele>150</ele>
        <time>2019-02-05T12:36:25Z</time>
      </trkpt>
      <trkpt lat="46.91477" lon="1.95058">
        <ele>148</ele>
        <time>2019-02-05T12:37:25Z</time>
      </trkpt>
      <trkpt lat="46.91376" lon="1.94977">
        <ele>142</ele>
        <time>2019-02-05T12:38:25Z</time>
      </trkpt>
      <trkpt lat="46.91291" lon="1.9488">
        <ele>138</ele>
        <time>2019-02-05T12:39:25Z</time>
      </trkpt>
      <trkpt lat="46.91141" lon="1.94698">
        <ele>138</ele>
        <time>2019-02-05T12:40:25Z</time>
      </trkpt>
      <trkpt lat="46.91066" lon="1.94573">
        <ele>141</ele>
        <time>2019-02-05T12:41:25Z</time>
      </trkpt>
      <trkpt lat="46.91001" lon="1.94489">
        <ele>143</ele>
        <time>2019-02-05T12:42:25Z</time>
      </trkpt>
      <trkpt lat="46.90756" lon="1.94109">
        <ele>152</ele>
        <time>2019-02-05T12:43:25Z</time>
      </trkpt>
      <trkpt lat="46.90634" lon="1.93739">
        <ele>155</ele>
        <time>2019-02-05T12:44:25Z</time>
      </trkpt>
      <trkpt lat="46.90581" lon="1.93591">
        <ele>154</ele>
        <time>2019-02-05T12:45:25Z</time>
      </trkpt>
      <trkpt lat="46.90362" lon="1.93198">
        <ele>152</ele>
        <time>2019-02-05T12:46:25Z</time>
      </trkpt>
      <trkpt lat="46.90104" lon="1.92734">
        <ele>156</ele>
        <time>2019-02-05T12:47:25Z</time>
      </trkpt>
      <trkpt lat="46.89793" lon="1.92175">
        <ele>158</ele>
        <time>2019-02-05T12:48:25Z</time>
      </trkpt>
      <trkpt lat="46.89544" lon="1.91708">
        <ele>152</ele>
        <time>2019-02-05T12:49:25Z</time>
      </trkpt>
      <trkpt lat="46.89736" lon="1.91361">
        <ele>150</ele>
        <time>2019-02-05T12:50:25Z</time>
      </trkpt>
      <trkpt lat="46.89826" lon="1.91128">
        <ele>149</ele>
        <time>2019-02-05T12:51:25Z</time>
      </trkpt>
      <trkpt lat="46.89603" lon="1.9109">
        <ele>151</ele>
        <time>2019-02-05T12:52:25Z</time>
      </trkpt>
      <trkpt lat="46.89542" lon="1.91044">
        <ele>152</ele>
        <time>2019-02-05T12:53:25Z</time>
      </trkpt>
      <trkpt lat="46.89429" lon="1.90963">
        <ele>156</ele>
        <time>2019-02-05T12:54:25Z</time>
      </trkpt>
      <trkpt lat="46.89281" lon="1.90832">
        <ele>157</ele>
        <time>2019-02-05T12:55:25Z</time>
      </trkpt>
      <trkpt lat="46.88932" lon="1.90516">
        <ele>156</ele>
        <time>2019-02-05T12:56:25Z</time>
      </trkpt>
      <trkpt lat="46.88593" lon="1.90207">
        <ele>154</ele>
        <time>2019-02-05T12:57:25Z</time>
      </trkpt>
      <trkpt lat="46.88412" lon="1.90021">
        <ele>157</ele>
        <time>2019-02-05T12:58:25Z</time>
      </trkpt>
      <trkpt lat="46.88217" lon="1.89758">
        <ele>156</ele>
        <time>2019-02-05T12:59:25Z</time>
      </trkpt>
      <trkpt lat="46.87823" lon="1.89235">
        <ele>159</ele>
        <time>2019-02-05T13:00:25Z</time>
      </trkpt>
      <trkpt lat="46.87779" lon="1.89204">
        <ele>160</ele>
        <time>2019-02-05T13:01:25Z</time>
      </trkpt>
      <trkpt lat="46.87448" lon="1.89018">
        <ele>160</ele>
        <time>2019-02-05T13:02:25Z</time>
      </trkpt>
      <trkpt lat="46.87734" lon="1.8823">
        <ele>157</ele>
        <time>2019-02-05T13:03:25Z</time>
      </trkpt>
      <trkpt lat="46.88082" lon="1.87298">
        <ele>147</ele>
        <time>2019-02-05T13:04:25Z</time>
      </trkpt>
      <trkpt lat="46.88171" lon="1.87033">
        <ele>145</ele>
        <time>2019-02-05T13:05:25Z</time>
      </trkpt>
      <trkpt lat="46.88213" lon="1.86714">
        <ele>153</ele>
        <time>2019-02-05T13:06:25Z</time>
      </trkpt>
      <trkpt lat="46.88243" lon="1.86515">
        <ele>155</ele>
        <time>2019-02-05T13:07:25Z</time>
      </trkpt>
      <trkpt lat="46.88288" lon="1.86354">
        <ele>153</ele>
        <time>2019-02-05T13:08:25Z</time>
      </trkpt>
      <trkpt lat="46.88328" lon="1.86308">
        <ele>149</ele>
        <time>2019-02-05T13:09:25Z</time>
      </trkpt>
      <trkpt lat="46.88538" lon="1.86181">
        <ele>151</ele>
        <time>2019-02-05T13:10:25Z</time>
      </trkpt>
      <trkpt lat="46.88564" lon="1.86119">
        <ele>154</ele>
        <time>2019-02-05T13:11:25Z</time>
      </trkpt>
      <trkpt lat="46.88597" lon="1.85992">
        <ele>158</ele>
        <time>2019-02-05T13:12:25Z</time>
      </trkpt>
      <trkpt lat="46.88611" lon="1.85954">
        <ele>159</ele>
        <time>2019-02-05T13:13:25Z</time>
      </trkpt>
      <trkpt lat="46.88635" lon="1.85908">
        <ele>159</ele>
        <time>2019-02-05T13:14:25Z</time>
      </trkpt>
    </trkseg>
  </trk>
</gpx>